sensor_id;sensor_type;location;lat;lon;timestamp;temperature;humidity
17182;DHT22;8706;48.254;16.422;2022-12-26T00:01:40;17.80;63.10
17182;DHT22;8706;48.254;16.422;2022-12-26T00:04:08;17.90;63.20
17182;DHT22;8706;48.254;16.422;2022-12-26T00:06:36;17.90;63.20
17182;DHT22;8706;48.254;16.422;2022-12-26T00:09:05;17.80;63.10
17182;DHT22;8706;48.254;16.422;2022-12-26T00:11:32;17.80;63.10
17182;DHT22;8706;48.254;16.422;2022-12-26T00:14:02;17.90;63.20
17182;DHT22;8706;48.254;16.422;2022-12-26T00:16:29;17.90;63.10
17182;DHT22;8706;48.254;16.422;2022-12-26T00:18:57;17.90;63.10
17182;DHT22;8706;48.254;16.422;2022-12-26T00:21:24;17.90;63.00
17182;DHT22;8706;48.254;16.422;2022-12-26T00:23:54;17.90;63.00
17182;DHT22;8706;48.254;16.422;2022-12-26T00:26:22;17.90;63.00
17182;DHT22;8706;48.254;16.422;2022-12-26T00:28:50;17.90;63.00
17182;DHT22;8706;48.254;16.422;2022-12-26T00:31:19;18.00;63.00
17182;DHT22;8706;48.254;16.422;2022-12-26T00:33:47;17.90;62.90
17182;DHT22;8706;48.254;16.422;2022-12-26T00:36:16;17.90;63.00
17182;DHT22;8706;48.254;16.422;2022-12-26T00:38:44;17.90;62.90
17182;DHT22;8706;48.254;16.422;2022-12-26T00:41:14;17.90;63.00
17182;DHT22;8706;48.254;16.422;2022-12-26T00:43:41;18.00;63.00
17182;DHT22;8706;48.254;16.422;2022-12-26T00:46:08;17.90;62.90
17182;DHT22;8706;48.254;16.422;2022-12-26T00:48:35;17.90;63.00
17182;DHT22;8706;48.254;16.422;2022-12-26T00:51:03;17.90;63.00
17182;DHT22;8706;48.254;16.422;2022-12-26T00:53:31;18.00;62.90
17182;DHT22;8706;48.254;16.422;2022-12-26T00:55:58;17.90;62.80
17182;DHT22;8706;48.254;16.422;2022-12-26T00:58:26;17.90;63.00
17182;DHT22;8706;48.254;16.422;2022-12-26T01:00:53;17.90;62.90
17182;DHT22;8706;48.254;16.422;2022-12-26T01:03:20;17.90;62.90
17182;DHT22;8706;48.254;16.422;2022-12-26T01:05:49;17.90;62.90
17182;DHT22;8706;48.254;16.422;2022-12-26T01:08:17;17.90;62.90
17182;DHT22;8706;48.254;16.422;2022-12-26T01:10:45;18.00;62.90
17182;DHT22;8706;48.254;16.422;2022-12-26T01:13:13;17.90;62.90
17182;DHT22;8706;48.254;16.422;2022-12-26T01:15:46;17.90;62.90
17182;DHT22;8706;48.254;16.422;2022-12-26T01:18:14;17.90;63.00
17182;DHT22;8706;48.254;16.422;2022-12-26T01:20:41;17.90;62.90
17182;DHT22;8706;48.254;16.422;2022-12-26T01:23:08;18.00;62.90
17182;DHT22;8706;48.254;16.422;2022-12-26T01:25:34;17.90;62.90
17182;DHT22;8706;48.254;16.422;2022-12-26T01:28:01;18.00;62.80
17182;DHT22;8706;48.254;16.422;2022-12-26T01:30:28;17.90;62.80
17182;DHT22;8706;48.254;16.422;2022-12-26T01:32:57;17.90;62.80
17182;DHT22;8706;48.254;16.422;2022-12-26T01:35:23;18.00;62.90
17182;DHT22;8706;48.254;16.422;2022-12-26T01:37:50;17.90;62.80
17182;DHT22;8706;48.254;16.422;2022-12-26T01:40:17;17.90;62.90
17182;DHT22;8706;48.254;16.422;2022-12-26T01:42:44;17.90;62.80
17182;DHT22;8706;48.254;16.422;2022-12-26T01:45:22;18.00;62.80
17182;DHT22;8706;48.254;16.422;2022-12-26T01:47:54;18.00;62.80
17182;DHT22;8706;48.254;16.422;2022-12-26T01:50:34;18.00;62.80
17182;DHT22;8706;48.254;16.422;2022-12-26T01:53:06;18.00;62.90
17182;DHT22;8706;48.254;16.422;2022-12-26T01:55:35;18.00;62.80
17182;DHT22;8706;48.254;16.422;2022-12-26T01:58:06;18.00;62.90
17182;DHT22;8706;48.254;16.422;2022-12-26T02:00:35;17.90;62.90
17182;DHT22;8706;48.254;16.422;2022-12-26T02:03:04;17.90;62.90
17182;DHT22;8706;48.254;16.422;2022-12-26T02:05:50;17.90;62.90
17182;DHT22;8706;48.254;16.422;2022-12-26T02:08:19;17.90;62.80
17182;DHT22;8706;48.254;16.422;2022-12-26T02:10:49;18.00;62.80
17182;DHT22;8706;48.254;16.422;2022-12-26T02:13:17;18.00;62.80
17182;DHT22;8706;48.254;16.422;2022-12-26T02:15:45;17.90;62.90
17182;DHT22;8706;48.254;16.422;2022-12-26T02:18:13;17.90;62.90
17182;DHT22;8706;48.254;16.422;2022-12-26T02:20:44;18.00;62.90
17182;DHT22;8706;48.254;16.422;2022-12-26T02:24:04;17.90;62.80
17182;DHT22;8706;48.254;16.422;2022-12-26T02:27:09;17.90;62.90
17182;DHT22;8706;48.254;16.422;2022-12-26T02:30:07;18.00;62.80
17182;DHT22;8706;48.254;16.422;2022-12-26T02:33:04;18.00;62.90
17182;DHT22;8706;48.254;16.422;2022-12-26T02:35:54;17.90;62.80
17182;DHT22;8706;48.254;16.422;2022-12-26T02:38:33;17.90;62.80
17182;DHT22;8706;48.254;16.422;2022-12-26T02:41:11;17.90;62.80
17182;DHT22;8706;48.254;16.422;2022-12-26T02:43:45;17.90;62.90
17182;DHT22;8706;48.254;16.422;2022-12-26T02:46:20;17.90;62.90
17182;DHT22;8706;48.254;16.422;2022-12-26T02:49:15;17.90;62.90
17182;DHT22;8706;48.254;16.422;2022-12-26T02:51:54;17.90;63.00
17182;DHT22;8706;48.254;16.422;2022-12-26T02:54:55;17.90;62.90
17182;DHT22;8706;48.254;16.422;2022-12-26T02:57:51;17.90;62.90
17182;DHT22;8706;48.254;16.422;2022-12-26T03:00:38;17.90;62.90
17182;DHT22;8706;48.254;16.422;2022-12-26T03:03:27;18.00;62.90
17182;DHT22;8706;48.254;16.422;2022-12-26T03:06:17;17.90;62.90
17182;DHT22;8706;48.254;16.422;2022-12-26T03:09:05;17.90;63.00
17182;DHT22;8706;48.254;16.422;2022-12-26T03:11:55;17.90;62.90
17182;DHT22;8706;48.254;16.422;2022-12-26T03:14:43;17.90;62.90
17182;DHT22;8706;48.254;16.422;2022-12-26T03:17:15;17.90;62.90
17182;DHT22;8706;48.254;16.422;2022-12-26T03:19:50;17.90;62.90
17182;DHT22;8706;48.254;16.422;2022-12-26T03:22:32;17.90;62.90
17182;DHT22;8706;48.254;16.422;2022-12-26T03:25:03;17.90;63.00
17182;DHT22;8706;48.254;16.422;2022-12-26T03:27:48;17.90;63.00
17182;DHT22;8706;48.254;16.422;2022-12-26T03:30:15;17.90;62.90
17182;DHT22;8706;48.254;16.422;2022-12-26T03:32:59;17.90;62.90
17182;DHT22;8706;48.254;16.422;2022-12-26T03:35:30;17.90;62.90
17182;DHT22;8706;48.254;16.422;2022-12-26T03:38:03;17.90;63.00
17182;DHT22;8706;48.254;16.422;2022-12-26T03:40:41;17.90;62.90
17182;DHT22;8706;48.254;16.422;2022-12-26T03:43:42;17.90;63.00
17182;DHT22;8706;48.254;16.422;2022-12-26T03:46:38;17.90;63.00
17182;DHT22;8706;48.254;16.422;2022-12-26T03:49:27;17.90;63.00
17182;DHT22;8706;48.254;16.422;2022-12-26T03:52:22;17.90;63.00
17182;DHT22;8706;48.254;16.422;2022-12-26T03:55:12;17.90;62.90
17182;DHT22;8706;48.254;16.422;2022-12-26T03:58:02;17.90;63.00
17182;DHT22;8706;48.254;16.422;2022-12-26T04:00:50;17.90;63.00
17182;DHT22;8706;48.254;16.422;2022-12-26T04:03:38;17.90;62.90
17182;DHT22;8706;48.254;16.422;2022-12-26T04:06:25;17.90;63.00
17182;DHT22;8706;48.254;16.422;2022-12-26T04:09:13;17.80;62.90
17182;DHT22;8706;48.254;16.422;2022-12-26T04:12:00;17.90;63.10
17182;DHT22;8706;48.254;16.422;2022-12-26T04:14:50;17.80;63.00
17182;DHT22;8706;48.254;16.422;2022-12-26T04:17:43;17.80;63.00
17182;DHT22;8706;48.254;16.422;2022-12-26T04:20:33;17.80;62.90
17182;DHT22;8706;48.254;16.422;2022-12-26T04:23:04;17.80;62.90
17182;DHT22;8706;48.254;16.422;2022-12-26T04:25:56;17.80;62.90
17182;DHT22;8706;48.254;16.422;2022-12-26T04:28:43;17.80;63.00
17182;DHT22;8706;48.254;16.422;2022-12-26T04:31:31;17.80;63.00
17182;DHT22;8706;48.254;16.422;2022-12-26T04:34:19;17.80;62.90
17182;DHT22;8706;48.254;16.422;2022-12-26T04:37:12;17.80;63.70
17182;DHT22;8706;48.254;16.422;2022-12-26T04:40:03;17.80;63.00
17182;DHT22;8706;48.254;16.422;2022-12-26T04:42:49;17.80;63.00
17182;DHT22;8706;48.254;16.422;2022-12-26T04:45:35;17.80;63.00
17182;DHT22;8706;48.254;16.422;2022-12-26T04:48:02;17.80;63.00
17182;DHT22;8706;48.254;16.422;2022-12-26T04:50:51;17.80;63.20
17182;DHT22;8706;48.254;16.422;2022-12-26T04:53:19;17.80;63.10
17182;DHT22;8706;48.254;16.422;2022-12-26T04:55:46;17.80;63.10
17182;DHT22;8706;48.254;16.422;2022-12-26T04:58:13;17.80;63.10
17182;DHT22;8706;48.254;16.422;2022-12-26T05:00:42;17.80;63.00
17182;DHT22;8706;48.254;16.422;2022-12-26T05:03:12;17.80;63.10
17182;DHT22;8706;48.254;16.422;2022-12-26T05:05:56;17.80;63.00
17182;DHT22;8706;48.254;16.422;2022-12-26T05:08:42;17.70;62.90
17182;DHT22;8706;48.254;16.422;2022-12-26T05:11:27;17.70;63.00
17182;DHT22;8706;48.254;16.422;2022-12-26T05:13:55;17.70;63.10
17182;DHT22;8706;48.254;16.422;2022-12-26T05:16:25;17.70;63.10
17182;DHT22;8706;48.254;16.422;2022-12-26T05:19:11;17.70;63.10
17182;DHT22;8706;48.254;16.422;2022-12-26T05:21:55;17.70;63.10
17182;DHT22;8706;48.254;16.422;2022-12-26T05:24:41;17.70;63.10
17182;DHT22;8706;48.254;16.422;2022-12-26T05:27:31;17.70;63.10
17182;DHT22;8706;48.254;16.422;2022-12-26T05:30:17;17.70;63.10
17182;DHT22;8706;48.254;16.422;2022-12-26T05:32:45;17.70;63.10
17182;DHT22;8706;48.254;16.422;2022-12-26T05:35:30;17.70;63.10
17182;DHT22;8706;48.254;16.422;2022-12-26T05:37:57;17.80;63.10
17182;DHT22;8706;48.254;16.422;2022-12-26T05:40:24;17.70;63.10
17182;DHT22;8706;48.254;16.422;2022-12-26T05:42:51;17.70;63.10
17182;DHT22;8706;48.254;16.422;2022-12-26T05:45:18;17.70;63.10
17182;DHT22;8706;48.254;16.422;2022-12-26T05:47:46;17.70;63.20
17182;DHT22;8706;48.254;16.422;2022-12-26T05:50:13;17.70;63.10
17182;DHT22;8706;48.254;16.422;2022-12-26T05:52:40;17.70;63.20
17182;DHT22;8706;48.254;16.422;2022-12-26T05:55:08;17.70;63.20
17182;DHT22;8706;48.254;16.422;2022-12-26T05:57:35;17.70;63.20
17182;DHT22;8706;48.254;16.422;2022-12-26T06:00:03;17.70;63.20
17182;DHT22;8706;48.254;16.422;2022-12-26T06:02:30;17.70;63.10
17182;DHT22;8706;48.254;16.422;2022-12-26T06:04:59;17.70;63.10
17182;DHT22;8706;48.254;16.422;2022-12-26T06:07:26;17.70;63.10
17182;DHT22;8706;48.254;16.422;2022-12-26T06:09:52;17.70;63.00
17182;DHT22;8706;48.254;16.422;2022-12-26T06:12:19;17.70;63.00
17182;DHT22;8706;48.254;16.422;2022-12-26T06:14:46;17.70;63.00
17182;DHT22;8706;48.254;16.422;2022-12-26T06:17:13;17.70;63.10
17182;DHT22;8706;48.254;16.422;2022-12-26T06:19:40;17.70;63.00
17182;DHT22;8706;48.254;16.422;2022-12-26T06:22:08;17.70;63.10
17182;DHT22;8706;48.254;16.422;2022-12-26T06:24:35;17.70;63.10
17182;DHT22;8706;48.254;16.422;2022-12-26T06:27:02;17.70;63.10
17182;DHT22;8706;48.254;16.422;2022-12-26T06:29:29;17.70;63.00
17182;DHT22;8706;48.254;16.422;2022-12-26T06:31:56;17.70;63.00
17182;DHT22;8706;48.254;16.422;2022-12-26T06:34:23;17.70;63.00
17182;DHT22;8706;48.254;16.422;2022-12-26T06:36:52;17.70;63.10
17182;DHT22;8706;48.254;16.422;2022-12-26T06:39:21;17.70;63.00
17182;DHT22;8706;48.254;16.422;2022-12-26T06:41:48;17.70;63.00
17182;DHT22;8706;48.254;16.422;2022-12-26T06:44:16;17.70;63.00
17182;DHT22;8706;48.254;16.422;2022-12-26T06:46:43;17.70;63.00
17182;DHT22;8706;48.254;16.422;2022-12-26T06:49:09;17.80;63.00
17182;DHT22;8706;48.254;16.422;2022-12-26T06:51:36;17.70;63.10
17182;DHT22;8706;48.254;16.422;2022-12-26T06:54:03;17.70;63.00
17182;DHT22;8706;48.254;16.422;2022-12-26T06:56:32;17.70;63.00
17182;DHT22;8706;48.254;16.422;2022-12-26T06:59:02;17.70;63.10
17182;DHT22;8706;48.254;16.422;2022-12-26T07:01:31;17.70;63.00
17182;DHT22;8706;48.254;16.422;2022-12-26T07:03:58;17.70;63.00
17182;DHT22;8706;48.254;16.422;2022-12-26T07:06:27;17.70;62.90
17182;DHT22;8706;48.254;16.422;2022-12-26T07:08:57;17.70;63.60
17182;DHT22;8706;48.254;16.422;2022-12-26T07:11:26;17.80;63.00
17182;DHT22;8706;48.254;16.422;2022-12-26T07:13:55;17.80;63.00
17182;DHT22;8706;48.254;16.422;2022-12-26T07:16:22;17.80;62.90
17182;DHT22;8706;48.254;16.422;2022-12-26T07:18:51;17.70;63.00
17182;DHT22;8706;48.254;16.422;2022-12-26T07:21:18;17.80;62.90
17182;DHT22;8706;48.254;16.422;2022-12-26T07:23:45;17.70;63.00
17182;DHT22;8706;48.254;16.422;2022-12-26T07:26:12;17.70;62.90
17182;DHT22;8706;48.254;16.422;2022-12-26T07:28:39;17.70;62.90
17182;DHT22;8706;48.254;16.422;2022-12-26T07:31:07;17.80;62.90
17182;DHT22;8706;48.254;16.422;2022-12-26T07:33:34;17.80;63.00
17182;DHT22;8706;48.254;16.422;2022-12-26T07:36:03;17.70;62.90
17182;DHT22;8706;48.254;16.422;2022-12-26T07:38:31;17.80;62.90
17182;DHT22;8706;48.254;16.422;2022-12-26T07:40:59;17.80;62.80
17182;DHT22;8706;48.254;16.422;2022-12-26T07:43:46;17.80;62.80
17182;DHT22;8706;48.254;16.422;2022-12-26T07:46:15;17.80;62.90
17182;DHT22;8706;48.254;16.422;2022-12-26T07:48:42;17.80;62.80
17182;DHT22;8706;48.254;16.422;2022-12-26T07:51:08;17.80;62.70
17182;DHT22;8706;48.254;16.422;2022-12-26T07:53:36;17.80;62.70
17182;DHT22;8706;48.254;16.422;2022-12-26T07:56:03;17.80;62.80
17182;DHT22;8706;48.254;16.422;2022-12-26T07:58:30;17.80;62.70
17182;DHT22;8706;48.254;16.422;2022-12-26T08:00:59;17.80;62.70
17182;DHT22;8706;48.254;16.422;2022-12-26T08:03:28;17.80;62.70
17182;DHT22;8706;48.254;16.422;2022-12-26T08:05:55;17.90;62.70
17182;DHT22;8706;48.254;16.422;2022-12-26T08:08:22;17.80;62.60
17182;DHT22;8706;48.254;16.422;2022-12-26T08:10:57;17.80;62.60
17182;DHT22;8706;48.254;16.422;2022-12-26T08:13:24;17.80;62.70
17182;DHT22;8706;48.254;16.422;2022-12-26T08:15:51;17.80;62.70
17182;DHT22;8706;48.254;16.422;2022-12-26T08:18:18;17.90;62.60
17182;DHT22;8706;48.254;16.422;2022-12-26T08:20:47;17.90;62.60
17182;DHT22;8706;48.254;16.422;2022-12-26T08:23:14;17.80;62.60
17182;DHT22;8706;48.254;16.422;2022-12-26T08:25:41;17.80;62.60
17182;DHT22;8706;48.254;16.422;2022-12-26T08:28:08;17.80;62.70
17182;DHT22;8706;48.254;16.422;2022-12-26T08:30:38;17.90;62.70
17182;DHT22;8706;48.254;16.422;2022-12-26T08:33:05;17.80;62.60
17182;DHT22;8706;48.254;16.422;2022-12-26T08:35:32;17.80;62.60
17182;DHT22;8706;48.254;16.422;2022-12-26T08:38:01;17.80;62.60
17182;DHT22;8706;48.254;16.422;2022-12-26T08:40:28;17.90;62.60
17182;DHT22;8706;48.254;16.422;2022-12-26T08:42:55;17.90;62.40
17182;DHT22;8706;48.254;16.422;2022-12-26T08:45:22;18.00;62.40
17182;DHT22;8706;48.254;16.422;2022-12-26T08:47:49;17.90;62.30
17182;DHT22;8706;48.254;16.422;2022-12-26T08:50:16;17.90;62.50
17182;DHT22;8706;48.254;16.422;2022-12-26T08:52:43;17.80;62.60
17182;DHT22;8706;48.254;16.422;2022-12-26T08:55:12;17.80;62.60
17182;DHT22;8706;48.254;16.422;2022-12-26T08:57:39;17.90;62.70
17182;DHT22;8706;48.254;16.422;2022-12-26T09:00:07;17.80;62.60
17182;DHT22;8706;48.254;16.422;2022-12-26T09:02:34;17.80;62.50
17182;DHT22;8706;48.254;16.422;2022-12-26T09:05:01;17.90;62.60
17182;DHT22;8706;48.254;16.422;2022-12-26T09:07:28;17.80;62.50
17182;DHT22;8706;48.254;16.422;2022-12-26T09:09:55;17.80;62.50
17182;DHT22;8706;48.254;16.422;2022-12-26T09:12:23;17.80;62.50
17182;DHT22;8706;48.254;16.422;2022-12-26T09:14:50;17.80;62.50
17182;DHT22;8706;48.254;16.422;2022-12-26T09:17:17;17.80;62.50
17182;DHT22;8706;48.254;16.422;2022-12-26T09:19:44;17.80;62.50
17182;DHT22;8706;48.254;16.422;2022-12-26T09:22:11;17.80;63.20
17182;DHT22;8706;48.254;16.422;2022-12-26T09:24:55;17.80;62.50
17182;DHT22;8706;48.254;16.422;2022-12-26T09:27:23;17.80;62.50
17182;DHT22;8706;48.254;16.422;2022-12-26T09:29:50;17.80;62.50
17182;DHT22;8706;48.254;16.422;2022-12-26T09:32:17;17.90;62.60
17182;DHT22;8706;48.254;16.422;2022-12-26T09:34:44;17.90;62.50
17182;DHT22;8706;48.254;16.422;2022-12-26T09:37:11;17.90;62.50
17182;DHT22;8706;48.254;16.422;2022-12-26T09:39:38;17.90;62.50
17182;DHT22;8706;48.254;16.422;2022-12-26T09:42:14;17.90;62.50
17182;DHT22;8706;48.254;16.422;2022-12-26T09:44:50;17.90;62.50
17182;DHT22;8706;48.254;16.422;2022-12-26T09:47:31;17.90;62.40
17182;DHT22;8706;48.254;16.422;2022-12-26T09:50:02;17.90;62.50
17182;DHT22;8706;48.254;16.422;2022-12-26T09:52:37;17.90;62.40
17182;DHT22;8706;48.254;16.422;2022-12-26T09:55:28;17.90;62.40
17182;DHT22;8706;48.254;16.422;2022-12-26T09:57:58;17.90;62.40
17182;DHT22;8706;48.254;16.422;2022-12-26T10:00:32;17.90;62.40
17182;DHT22;8706;48.254;16.422;2022-12-26T10:03:03;17.90;62.40
17182;DHT22;8706;48.254;16.422;2022-12-26T10:05:37;17.90;62.40
17182;DHT22;8706;48.254;16.422;2022-12-26T10:08:19;17.90;62.30
17182;DHT22;8706;48.254;16.422;2022-12-26T10:10:52;17.90;62.60
17182;DHT22;8706;48.254;16.422;2022-12-26T10:13:30;18.00;62.30
17182;DHT22;8706;48.254;16.422;2022-12-26T10:16:03;18.00;62.30
17182;DHT22;8706;48.254;16.422;2022-12-26T10:18:39;18.00;62.20
17182;DHT22;8706;48.254;16.422;2022-12-26T10:21:21;18.00;62.20
17182;DHT22;8706;48.254;16.422;2022-12-26T10:23:57;18.00;62.10
17182;DHT22;8706;48.254;16.422;2022-12-26T10:26:30;18.00;62.10
17182;DHT22;8706;48.254;16.422;2022-12-26T10:29:03;18.10;62.10
17182;DHT22;8706;48.254;16.422;2022-12-26T10:31:41;18.10;62.00
17182;DHT22;8706;48.254;16.422;2022-12-26T10:34:14;18.10;62.00
17182;DHT22;8706;48.254;16.422;2022-12-26T10:36:46;18.10;62.00
17182;DHT22;8706;48.254;16.422;2022-12-26T10:39:18;18.10;62.00
17182;DHT22;8706;48.254;16.422;2022-12-26T10:41:50;18.10;62.10
17182;DHT22;8706;48.254;16.422;2022-12-26T10:44:18;18.10;62.00
17182;DHT22;8706;48.254;16.422;2022-12-26T10:47:01;18.10;61.90
17182;DHT22;8706;48.254;16.422;2022-12-26T10:49:31;18.10;62.00
17182;DHT22;8706;48.254;16.422;2022-12-26T10:52:00;18.10;62.00
17182;DHT22;8706;48.254;16.422;2022-12-26T10:54:28;18.10;62.00
17182;DHT22;8706;48.254;16.422;2022-12-26T10:56:57;18.10;62.60
17182;DHT22;8706;48.254;16.422;2022-12-26T10:59:34;18.10;61.90
17182;DHT22;8706;48.254;16.422;2022-12-26T11:02:13;18.10;61.90
17182;DHT22;8706;48.254;16.422;2022-12-26T11:04:59;18.20;61.90
17182;DHT22;8706;48.254;16.422;2022-12-26T11:07:29;18.20;61.70
17182;DHT22;8706;48.254;16.422;2022-12-26T11:09:57;18.20;61.70
17182;DHT22;8706;48.254;16.422;2022-12-26T11:12:27;18.20;61.80
17182;DHT22;8706;48.254;16.422;2022-12-26T11:14:58;18.20;61.70
17182;DHT22;8706;48.254;16.422;2022-12-26T11:17:29;18.20;61.80
17182;DHT22;8706;48.254;16.422;2022-12-26T11:20:21;18.20;61.70
17182;DHT22;8706;48.254;16.422;2022-12-26T11:22:49;18.20;61.70
17182;DHT22;8706;48.254;16.422;2022-12-26T11:25:22;18.20;61.70
17182;DHT22;8706;48.254;16.422;2022-12-26T11:27:51;18.20;61.70
17182;DHT22;8706;48.254;16.422;2022-12-26T11:30:23;18.30;61.70
17182;DHT22;8706;48.254;16.422;2022-12-26T11:33:04;18.30;61.50
17182;DHT22;8706;48.254;16.422;2022-12-26T11:35:32;18.30;61.40
17182;DHT22;8706;48.254;16.422;2022-12-26T11:38:03;18.30;61.60
17182;DHT22;8706;48.254;16.422;2022-12-26T11:40:35;18.30;61.50
17182;DHT22;8706;48.254;16.422;2022-12-26T11:43:04;18.30;61.50
17182;DHT22;8706;48.254;16.422;2022-12-26T11:45:42;18.30;61.60
17182;DHT22;8706;48.254;16.422;2022-12-26T11:48:22;18.30;61.60
17182;DHT22;8706;48.254;16.422;2022-12-26T11:50:50;18.30;61.50
17182;DHT22;8706;48.254;16.422;2022-12-26T11:53:18;18.30;61.60
17182;DHT22;8706;48.254;16.422;2022-12-26T11:55:57;18.30;61.60
17182;DHT22;8706;48.254;16.422;2022-12-26T11:58:26;18.30;61.60
17182;DHT22;8706;48.254;16.422;2022-12-26T12:01:18;18.30;61.60
17182;DHT22;8706;48.254;16.422;2022-12-26T12:03:47;18.30;61.50
17182;DHT22;8706;48.254;16.422;2022-12-26T12:06:31;18.40;61.40
17182;DHT22;8706;48.254;16.422;2022-12-26T12:09:16;18.40;61.30
17182;DHT22;8706;48.254;16.422;2022-12-26T12:11:50;18.40;61.30
17182;DHT22;8706;48.254;16.422;2022-12-26T12:14:31;18.40;61.30
17182;DHT22;8706;48.254;16.422;2022-12-26T12:17:07;18.40;61.40
17182;DHT22;8706;48.254;16.422;2022-12-26T12:19:45;18.40;61.40
17182;DHT22;8706;48.254;16.422;2022-12-26T12:22:39;18.40;61.40
17182;DHT22;8706;48.254;16.422;2022-12-26T12:25:31;18.30;61.50
17182;DHT22;8706;48.254;16.422;2022-12-26T12:28:09;18.40;61.50
17182;DHT22;8706;48.254;16.422;2022-12-26T12:30:43;18.40;61.40
17182;DHT22;8706;48.254;16.422;2022-12-26T12:33:25;18.40;61.30
17182;DHT22;8706;48.254;16.422;2022-12-26T12:36:06;18.50;61.20
17182;DHT22;8706;48.254;16.422;2022-12-26T12:38:42;18.50;61.10
17182;DHT22;8706;48.254;16.422;2022-12-26T12:41:34;18.50;61.10
17182;DHT22;8706;48.254;16.422;2022-12-26T12:44:06;18.60;61.10
17182;DHT22;8706;48.254;16.422;2022-12-26T12:46:41;18.60;61.10
17182;DHT22;8706;48.254;16.422;2022-12-26T12:49:41;18.60;61.00
17182;DHT22;8706;48.254;16.422;2022-12-26T12:52:20;18.60;61.10
17182;DHT22;8706;48.254;16.422;2022-12-26T12:55:18;18.60;61.10
17182;DHT22;8706;48.254;16.422;2022-12-26T12:57:51;18.60;61.00
17182;DHT22;8706;48.254;16.422;2022-12-26T13:00:21;18.60;61.10
17182;DHT22;8706;48.254;16.422;2022-12-26T13:02:53;18.60;61.00
17182;DHT22;8706;48.254;16.422;2022-12-26T13:05:29;18.50;61.10
17182;DHT22;8706;48.254;16.422;2022-12-26T13:08:06;18.50;61.10
17182;DHT22;8706;48.254;16.422;2022-12-26T13:10:36;18.50;61.10
17182;DHT22;8706;48.254;16.422;2022-12-26T13:13:12;18.50;61.10
17182;DHT22;8706;48.254;16.422;2022-12-26T13:15:43;18.50;61.10
17182;DHT22;8706;48.254;16.422;2022-12-26T13:18:15;18.50;61.80
17182;DHT22;8706;48.254;16.422;2022-12-26T13:20:46;18.50;61.20
17182;DHT22;8706;48.254;16.422;2022-12-26T13:23:20;18.50;61.30
17182;DHT22;8706;48.254;16.422;2022-12-26T13:26:10;18.40;61.30
17182;DHT22;8706;48.254;16.422;2022-12-26T13:28:46;18.40;61.40
17182;DHT22;8706;48.254;16.422;2022-12-26T13:31:14;18.40;61.50
17182;DHT22;8706;48.254;16.422;2022-12-26T13:33:41;18.40;61.40
17182;DHT22;8706;48.254;16.422;2022-12-26T13:36:09;18.40;61.50
17182;DHT22;8706;48.254;16.422;2022-12-26T13:39:25;18.40;61.50
17182;DHT22;8706;48.254;16.422;2022-12-26T13:41:57;18.40;61.50
17182;DHT22;8706;48.254;16.422;2022-12-26T13:44:42;18.40;61.40
17182;DHT22;8706;48.254;16.422;2022-12-26T13:47:31;18.40;61.50
17182;DHT22;8706;48.254;16.422;2022-12-26T13:50:10;18.40;61.40
17182;DHT22;8706;48.254;16.422;2022-12-26T13:52:58;18.50;61.40
17182;DHT22;8706;48.254;16.422;2022-12-26T13:55:40;18.60;61.10
17182;DHT22;8706;48.254;16.422;2022-12-26T13:58:32;18.80;61.00
17182;DHT22;8706;48.254;16.422;2022-12-26T14:01:06;18.90;60.60
17182;DHT22;8706;48.254;16.422;2022-12-26T14:03:47;19.10;60.30
17182;DHT22;8706;48.254;16.422;2022-12-26T14:06:38;19.10;60.20
17182;DHT22;8706;48.254;16.422;2022-12-26T14:09:27;19.10;60.20
17182;DHT22;8706;48.254;16.422;2022-12-26T14:12:18;19.00;60.20
17182;DHT22;8706;48.254;16.422;2022-12-26T14:15:02;19.00;60.20
17182;DHT22;8706;48.254;16.422;2022-12-26T14:17:39;18.90;60.20
17182;DHT22;8706;48.254;16.422;2022-12-26T14:20:20;18.90;60.30
17182;DHT22;8706;48.254;16.422;2022-12-26T14:23:01;18.90;60.50
17182;DHT22;8706;48.254;16.422;2022-12-26T14:25:39;18.90;60.50
17182;DHT22;8706;48.254;16.422;2022-12-26T14:28:19;18.80;60.80
17182;DHT22;8706;48.254;16.422;2022-12-26T14:30:55;18.80;60.70
17182;DHT22;8706;48.254;16.422;2022-12-26T14:33:28;18.70;60.70
17182;DHT22;8706;48.254;16.422;2022-12-26T14:36:03;18.70;60.80
17182;DHT22;8706;48.254;16.422;2022-12-26T14:38:42;18.70;60.90
17182;DHT22;8706;48.254;16.422;2022-12-26T14:41:14;18.70;60.90
17182;DHT22;8706;48.254;16.422;2022-12-26T14:43:56;18.60;61.00
17182;DHT22;8706;48.254;16.422;2022-12-26T14:46:58;18.60;61.00
17182;DHT22;8706;48.254;16.422;2022-12-26T14:49:37;18.50;61.10
17182;DHT22;8706;48.254;16.422;2022-12-26T14:58:37;18.40;61.40
17182;DHT22;8706;48.254;16.422;2022-12-26T15:01:43;18.40;61.50
17182;DHT22;8706;48.254;16.422;2022-12-26T15:07:37;18.40;61.60
17182;DHT22;8706;48.254;16.422;2022-12-26T15:16:31;18.20;61.80
17182;DHT22;8706;48.254;16.422;2022-12-26T15:19:42;18.20;61.90
17182;DHT22;8706;48.254;16.422;2022-12-26T15:22:33;18.20;61.90
17182;DHT22;8706;48.254;16.422;2022-12-26T15:28:21;18.20;62.00
17182;DHT22;8706;48.254;16.422;2022-12-26T15:33:58;18.10;62.10
17182;DHT22;8706;48.254;16.422;2022-12-26T15:36:32;18.10;62.10
17182;DHT22;8706;48.254;16.422;2022-12-26T15:39:09;18.10;62.20
17182;DHT22;8706;48.254;16.422;2022-12-26T15:41:45;18.00;62.20
17182;DHT22;8706;48.254;16.422;2022-12-26T15:44:20;18.10;62.30
17182;DHT22;8706;48.254;16.422;2022-12-26T15:46:56;18.10;62.30
17182;DHT22;8706;48.254;16.422;2022-12-26T15:49:53;18.10;62.30
17182;DHT22;8706;48.254;16.422;2022-12-26T15:52:28;18.00;62.30
17182;DHT22;8706;48.254;16.422;2022-12-26T15:57:51;18.00;62.30
17182;DHT22;8706;48.254;16.422;2022-12-26T16:00:23;18.00;62.30
17182;DHT22;8706;48.254;16.422;2022-12-26T16:05:54;18.00;62.40
17182;DHT22;8706;48.254;16.422;2022-12-26T16:08:58;18.00;62.40
17182;DHT22;8706;48.254;16.422;2022-12-26T16:11:29;18.00;62.40
17182;DHT22;8706;48.254;16.422;2022-12-26T16:13:59;18.00;62.40
17182;DHT22;8706;48.254;16.422;2022-12-26T16:16:29;17.90;62.40
17182;DHT22;8706;48.254;16.422;2022-12-26T16:18:56;18.00;62.50
17182;DHT22;8706;48.254;16.422;2022-12-26T16:21:26;17.90;62.40
17182;DHT22;8706;48.254;16.422;2022-12-26T16:24:13;17.90;62.40
17182;DHT22;8706;48.254;16.422;2022-12-26T16:26:43;17.90;62.40
17182;DHT22;8706;48.254;16.422;2022-12-26T16:29:16;17.90;62.50
17182;DHT22;8706;48.254;16.422;2022-12-26T16:31:44;18.00;62.40
17182;DHT22;8706;48.254;16.422;2022-12-26T16:34:14;17.90;62.40
17182;DHT22;8706;48.254;16.422;2022-12-26T16:36:44;17.90;62.50
17182;DHT22;8706;48.254;16.422;2022-12-26T16:39:17;17.90;62.60
17182;DHT22;8706;48.254;16.422;2022-12-26T16:41:59;17.90;62.60
17182;DHT22;8706;48.254;16.422;2022-12-26T16:44:33;17.80;62.60
17182;DHT22;8706;48.254;16.422;2022-12-26T16:47:02;17.80;63.30